sensor_id;sensor_type;location;lat;lon;timestamp;temperature;humidity
37052;DHT22;22964;52.272;13.356;2023-03-25T00:01:01;12.80;69.60
37052;DHT22;22964;52.272;13.356;2023-03-25T00:03:31;12.80;69.50
37052;DHT22;22964;52.272;13.356;2023-03-25T00:06:04;12.80;69.30
37052;DHT22;22964;52.272;13.356;2023-03-25T00:08:31;12.80;69.00
37052;DHT22;22964;52.272;13.356;2023-03-25T00:10:58;12.80;68.90
37052;DHT22;22964;52.272;13.356;2023-03-25T00:13:25;12.80;69.00
37052;DHT22;22964;52.272;13.356;2023-03-25T00:15:51;12.80;69.20
37052;DHT22;22964;52.272;13.356;2023-03-25T00:18:23;12.80;70.20
37052;DHT22;22964;52.272;13.356;2023-03-25T00:20:51;12.70;69.40
37052;DHT22;22964;52.272;13.356;2023-03-25T00:23:21;12.70;69.50
37052;DHT22;22964;52.272;13.356;2023-03-25T00:25:48;12.70;69.90
37052;DHT22;22964;52.272;13.356;2023-03-25T00:28:14;12.70;69.90
37052;DHT22;22964;52.272;13.356;2023-03-25T00:30:43;12.80;70.20
37052;DHT22;22964;52.272;13.356;2023-03-25T00:33:09;12.70;70.20
37052;DHT22;22964;52.272;13.356;2023-03-25T00:35:39;12.70;70.30
37052;DHT22;22964;52.272;13.356;2023-03-25T00:38:13;12.80;70.80
37052;DHT22;22964;52.272;13.356;2023-03-25T00:40:39;12.80;70.50
37052;DHT22;22964;52.272;13.356;2023-03-25T00:43:05;12.80;70.60
37052;DHT22;22964;52.272;13.356;2023-03-25T00:45:32;12.80;70.50
37052;DHT22;22964;52.272;13.356;2023-03-25T00:47:58;12.80;70.50
37052;DHT22;22964;52.272;13.356;2023-03-25T00:50:24;12.80;70.40
37052;DHT22;22964;52.272;13.356;2023-03-25T00:52:50;12.80;70.40
37052;DHT22;22964;52.272;13.356;2023-03-25T00:55:18;12.80;70.70
37052;DHT22;22964;52.272;13.356;2023-03-25T00:57:44;12.80;70.80
37052;DHT22;22964;52.272;13.356;2023-03-25T01:00:16;12.80;70.70
37052;DHT22;22964;52.272;13.356;2023-03-25T01:02:43;12.80;70.80
37052;DHT22;22964;52.272;13.356;2023-03-25T01:05:10;12.80;70.40
37052;DHT22;22964;52.272;13.356;2023-03-25T01:07:37;12.80;70.30
37052;DHT22;22964;52.272;13.356;2023-03-25T01:10:05;12.80;70.30
37052;DHT22;22964;52.272;13.356;2023-03-25T01:12:31;12.80;70.10
37052;DHT22;22964;52.272;13.356;2023-03-25T01:14:57;12.80;69.90
37052;DHT22;22964;52.272;13.356;2023-03-25T01:17:23;12.80;69.70
37052;DHT22;22964;52.272;13.356;2023-03-25T01:19:49;12.80;69.60
37052;DHT22;22964;52.272;13.356;2023-03-25T01:22:16;12.70;69.50
37052;DHT22;22964;52.272;13.356;2023-03-25T01:24:41;12.70;69.40
37052;DHT22;22964;52.272;13.356;2023-03-25T01:27:07;12.70;69.40
37052;DHT22;22964;52.272;13.356;2023-03-25T01:29:34;12.60;69.40
37052;DHT22;22964;52.272;13.356;2023-03-25T01:31:59;12.60;69.40
37052;DHT22;22964;52.272;13.356;2023-03-25T01:34:25;12.60;69.60
37052;DHT22;22964;52.272;13.356;2023-03-25T01:36:52;12.60;69.80
37052;DHT22;22964;52.272;13.356;2023-03-25T01:39:20;12.50;70.00
37052;DHT22;22964;52.272;13.356;2023-03-25T01:41:48;12.50;70.20
37052;DHT22;22964;52.272;13.356;2023-03-25T01:46:43;12.50;70.40
37052;DHT22;22964;52.272;13.356;2023-03-25T01:49:13;12.50;70.50
37052;DHT22;22964;52.272;13.356;2023-03-25T01:51:43;12.40;70.70
37052;DHT22;22964;52.272;13.356;2023-03-25T01:54:11;12.40;70.70
37052;DHT22;22964;52.272;13.356;2023-03-25T01:56:44;12.40;70.80
37052;DHT22;22964;52.272;13.356;2023-03-25T01:59:12;12.40;70.90
37052;DHT22;22964;52.272;13.356;2023-03-25T02:01:40;12.40;70.90
37052;DHT22;22964;52.272;13.356;2023-03-25T02:04:11;12.40;71.10
37052;DHT22;22964;52.272;13.356;2023-03-25T02:06:42;12.40;71.20
37052;DHT22;22964;52.272;13.356;2023-03-25T02:09:10;12.40;71.40
37052;DHT22;22964;52.272;13.356;2023-03-25T02:11:37;12.40;71.40
37052;DHT22;22964;52.272;13.356;2023-03-25T02:14:13;12.40;71.40
37052;DHT22;22964;52.272;13.356;2023-03-25T02:22:43;12.40;71.90
37052;DHT22;22964;52.272;13.356;2023-03-25T02:30:41;12.50;72.30
37052;DHT22;22964;52.272;13.356;2023-03-25T02:42:11;12.60;72.60
37052;DHT22;22964;52.272;13.356;2023-03-25T02:47:25;12.70;72.50
37052;DHT22;22964;52.272;13.356;2023-03-25T02:49:57;12.70;72.30
37052;DHT22;22964;52.272;13.356;2023-03-25T02:52:46;12.70;73.20
37052;DHT22;22964;52.272;13.356;2023-03-25T02:55:16;12.80;72.90
37052;DHT22;22964;52.272;13.356;2023-03-25T02:57:47;12.80;72.50
37052;DHT22;22964;52.272;13.356;2023-03-25T03:00:18;12.80;72.60
37052;DHT22;22964;52.272;13.356;2023-03-25T03:02:57;12.80;72.60
37052;DHT22;22964;52.272;13.356;2023-03-25T03:05:30;12.80;73.00
37052;DHT22;22964;52.272;13.356;2023-03-25T03:10:51;12.90;73.60
37052;DHT22;22964;52.272;13.356;2023-03-25T03:16:11;12.90;73.20
37052;DHT22;22964;52.272;13.356;2023-03-25T03:18:54;13.00;73.40
37052;DHT22;22964;52.272;13.356;2023-03-25T03:27:19;13.00;73.10
37052;DHT22;22964;52.272;13.356;2023-03-25T03:33:08;13.10;72.90
37052;DHT22;22964;52.272;13.356;2023-03-25T03:35:57;13.20;72.70
37052;DHT22;22964;52.272;13.356;2023-03-25T03:38:30;13.20;72.70
37052;DHT22;22964;52.272;13.356;2023-03-25T03:41:03;13.20;72.20
37052;DHT22;22964;52.272;13.356;2023-03-25T03:43:44;13.30;72.30
37052;DHT22;22964;52.272;13.356;2023-03-25T03:46:38;13.30;72.30
37052;DHT22;22964;52.272;13.356;2023-03-25T03:49:09;13.30;72.30
37052;DHT22;22964;52.272;13.356;2023-03-25T03:51:41;13.30;72.00
37052;DHT22;22964;52.272;13.356;2023-03-25T03:54:27;13.30;72.00
37052;DHT22;22964;52.272;13.356;2023-03-25T03:57:00;13.30;72.30
37052;DHT22;22964;52.272;13.356;2023-03-25T04:02:39;13.30;71.90
37052;DHT22;22964;52.272;13.356;2023-03-25T04:05:11;13.40;72.20
37052;DHT22;22964;52.272;13.356;2023-03-25T04:07:42;13.40;71.50
37052;DHT22;22964;52.272;13.356;2023-03-25T04:12:42;13.40;71.20
37052;DHT22;22964;52.272;13.356;2023-03-25T04:15:09;13.40;71.30
37052;DHT22;22964;52.272;13.356;2023-03-25T04:17:35;13.40;71.20
37052;DHT22;22964;52.272;13.356;2023-03-25T04:20:01;13.40;71.20
37052;DHT22;22964;52.272;13.356;2023-03-25T04:22:33;13.40;71.20
37052;DHT22;22964;52.272;13.356;2023-03-25T04:25:06;13.30;71.10
37052;DHT22;22964;52.272;13.356;2023-03-25T04:27:32;13.40;71.30
37052;DHT22;22964;52.272;13.356;2023-03-25T04:30:05;13.30;71.20
37052;DHT22;22964;52.272;13.356;2023-03-25T04:32:30;13.40;71.30
37052;DHT22;22964;52.272;13.356;2023-03-25T04:34:56;13.40;71.20
37052;DHT22;22964;52.272;13.356;2023-03-25T04:37:26;13.40;71.20
37052;DHT22;22964;52.272;13.356;2023-03-25T04:39:53;13.30;71.30
37052;DHT22;22964;52.272;13.356;2023-03-25T04:42:21;13.40;71.80
37052;DHT22;22964;52.272;13.356;2023-03-25T04:44:53;13.40;71.10
37052;DHT22;22964;52.272;13.356;2023-03-25T04:47:22;13.40;71.10
37052;DHT22;22964;52.272;13.356;2023-03-25T04:49:49;13.40;71.10
37052;DHT22;22964;52.272;13.356;2023-03-25T04:52:15;13.40;70.80
37052;DHT22;22964;52.272;13.356;2023-03-25T04:54:41;13.40;70.60
37052;DHT22;22964;52.272;13.356;2023-03-25T04:57:06;13.40;70.60
37052;DHT22;22964;52.272;13.356;2023-03-25T04:59:35;13.30;70.40
37052;DHT22;22964;52.272;13.356;2023-03-25T05:02:02;13.40;70.40
37052;DHT22;22964;52.272;13.356;2023-03-25T05:04:31;13.40;70.40
37052;DHT22;22964;52.272;13.356;2023-03-25T05:06:57;13.40;70.30
37052;DHT22;22964;52.272;13.356;2023-03-25T05:09:22;13.40;70.20
37052;DHT22;22964;52.272;13.356;2023-03-25T05:11:50;13.40;70.10
37052;DHT22;22964;52.272;13.356;2023-03-25T05:14:18;13.30;69.90
37052;DHT22;22964;52.272;13.356;2023-03-25T05:16:45;13.40;69.90
37052;DHT22;22964;52.272;13.356;2023-03-25T05:19:12;13.40;69.70
37052;DHT22;22964;52.272;13.356;2023-03-25T05:21:40;13.40;69.70
37052;DHT22;22964;52.272;13.356;2023-03-25T05:24:11;13.30;69.60
37052;DHT22;22964;52.272;13.356;2023-03-25T05:26:39;13.40;69.50
37052;DHT22;22964;52.272;13.356;2023-03-25T05:29:15;13.40;69.40
37052;DHT22;22964;52.272;13.356;2023-03-25T05:31:42;13.30;69.20
37052;DHT22;22964;52.272;13.356;2023-03-25T05:34:09;13.40;69.20
37052;DHT22;22964;52.272;13.356;2023-03-25T05:36:35;13.30;69.10
37052;DHT22;22964;52.272;13.356;2023-03-25T05:39:02;13.30;69.00
37052;DHT22;22964;52.272;13.356;2023-03-25T05:41:29;13.30;69.10
37052;DHT22;22964;52.272;13.356;2023-03-25T05:43:59;13.30;69.10
37052;DHT22;22964;52.272;13.356;2023-03-25T05:46:26;13.30;69.20
37052;DHT22;22964;52.272;13.356;2023-03-25T05:48:53;13.40;69.40
37052;DHT22;22964;52.272;13.356;2023-03-25T05:51:19;13.40;69.50
37052;DHT22;22964;52.272;13.356;2023-03-25T05:53:47;13.40;69.50
37052;DHT22;22964;52.272;13.356;2023-03-25T05:56:18;13.40;69.60
37052;DHT22;22964;52.272;13.356;2023-03-25T05:58:48;13.40;70.40
37052;DHT22;22964;52.272;13.356;2023-03-25T06:01:15;13.50;69.60
37052;DHT22;22964;52.272;13.356;2023-03-25T06:03:44;13.40;69.50
37052;DHT22;22964;52.272;13.356;2023-03-25T06:06:11;13.50;70.30
37052;DHT22;22964;52.272;13.356;2023-03-25T06:08:48;13.50;69.40
37052;DHT22;22964;52.272;13.356;2023-03-25T06:11:16;13.50;69.40
37052;DHT22;22964;52.272;13.356;2023-03-25T06:13:43;13.50;69.40
37052;DHT22;22964;52.272;13.356;2023-03-25T06:16:24;13.50;69.90
37052;DHT22;22964;52.272;13.356;2023-03-25T06:18:53;13.50;70.00
37052;DHT22;22964;52.272;13.356;2023-03-25T06:21:25;13.60;69.90
37052;DHT22;22964;52.272;13.356;2023-03-25T06:23:52;13.60;70.10
37052;DHT22;22964;52.272;13.356;2023-03-25T06:26:19;13.50;70.00
37052;DHT22;22964;52.272;13.356;2023-03-25T06:28:46;13.50;70.30
37052;DHT22;22964;52.272;13.356;2023-03-25T06:31:23;13.50;70.40
37052;DHT22;22964;52.272;13.356;2023-03-25T06:33:51;13.50;70.90
37052;DHT22;22964;52.272;13.356;2023-03-25T06:36:18;13.50;70.80
37052;DHT22;22964;52.272;13.356;2023-03-25T06:38:45;13.40;70.90
37052;DHT22;22964;52.272;13.356;2023-03-25T06:41:13;13.40;71.20
37052;DHT22;22964;52.272;13.356;2023-03-25T06:43:41;13.40;71.60
37052;DHT22;22964;52.272;13.356;2023-03-25T06:46:33;13.40;71.60
37052;DHT22;22964;52.272;13.356;2023-03-25T06:48:59;13.40;71.60
37052;DHT22;22964;52.272;13.356;2023-03-25T06:51:24;13.40;71.60
37052;DHT22;22964;52.272;13.356;2023-03-25T06:53:50;13.40;71.90
37052;DHT22;22964;52.272;13.356;2023-03-25T06:56:16;13.40;71.90
37052;DHT22;22964;52.272;13.356;2023-03-25T06:58:42;13.50;72.10
37052;DHT22;22964;52.272;13.356;2023-03-25T07:01:07;13.50;72.20
37052;DHT22;22964;52.272;13.356;2023-03-25T07:03:35;13.50;72.40
37052;DHT22;22964;52.272;13.356;2023-03-25T07:06:01;13.50;72.50
37052;DHT22;22964;52.272;13.356;2023-03-25T07:08:27;13.60;72.40
37052;DHT22;22964;52.272;13.356;2023-03-25T07:10:58;13.60;72.30
37052;DHT22;22964;52.272;13.356;2023-03-25T07:13:24;13.60;72.40
37052;DHT22;22964;52.272;13.356;2023-03-25T07:15:50;13.60;72.10
37052;DHT22;22964;52.272;13.356;2023-03-25T07:18:19;13.70;72.10
37052;DHT22;22964;52.272;13.356;2023-03-25T07:20:44;13.70;72.10
37052;DHT22;22964;52.272;13.356;2023-03-25T07:23:10;13.70;71.90
37052;DHT22;22964;52.272;13.356;2023-03-25T07:25:36;13.70;71.70
37052;DHT22;22964;52.272;13.356;2023-03-25T07:28:01;13.80;71.70
37052;DHT22;22964;52.272;13.356;2023-03-25T07:30:29;13.80;71.70
37052;DHT22;22964;52.272;13.356;2023-03-25T07:32:55;13.90;71.40
37052;DHT22;22964;52.272;13.356;2023-03-25T07:35:21;13.90;70.90
37052;DHT22;22964;52.272;13.356;2023-03-25T07:37:47;13.90;70.80
37052;DHT22;22964;52.272;13.356;2023-03-25T07:40:12;14.00;70.90
37052;DHT22;22964;52.272;13.356;2023-03-25T07:42:38;14.00;70.80
37052;DHT22;22964;52.272;13.356;2023-03-25T07:45:19;14.10;70.90
37052;DHT22;22964;52.272;13.356;2023-03-25T07:47:45;14.20;70.80
37052;DHT22;22964;52.272;13.356;2023-03-25T07:50:19;14.30;70.80
37052;DHT22;22964;52.272;13.356;2023-03-25T07:52:45;14.40;70.40
37052;DHT22;22964;52.272;13.356;2023-03-25T07:55:11;14.60;70.00
37052;DHT22;22964;52.272;13.356;2023-03-25T07:57:37;14.70;69.40
37052;DHT22;22964;52.272;13.356;2023-03-25T08:00:04;14.80;68.70
37052;DHT22;22964;52.272;13.356;2023-03-25T08:02:37;15.00;68.20
37052;DHT22;22964;52.272;13.356;2023-03-25T08:05:04;15.10;67.80
37052;DHT22;22964;52.272;13.356;2023-03-25T08:07:31;15.10;67.50
37052;DHT22;22964;52.272;13.356;2023-03-25T08:09:57;15.20;67.20
37052;DHT22;22964;52.272;13.356;2023-03-25T08:12:23;15.30;66.90
37052;DHT22;22964;52.272;13.356;2023-03-25T08:14:48;15.40;66.20
37052;DHT22;22964;52.272;13.356;2023-03-25T08:17:14;15.50;65.40
37052;DHT22;22964;52.272;13.356;2023-03-25T08:19:40;15.50;65.50
37052;DHT22;22964;52.272;13.356;2023-03-25T08:22:06;15.60;65.50
37052;DHT22;22964;52.272;13.356;2023-03-25T08:24:32;15.70;65.50
37052;DHT22;22964;52.272;13.356;2023-03-25T08:26:57;15.80;65.30
37052;DHT22;22964;52.272;13.356;2023-03-25T08:29:27;15.90;63.40
37052;DHT22;22964;52.272;13.356;2023-03-25T08:31:54;16.00;62.80
37052;DHT22;22964;52.272;13.356;2023-03-25T08:34:20;16.00;62.60
37052;DHT22;22964;52.272;13.356;2023-03-25T08:36:46;16.00;61.80
37052;DHT22;22964;52.272;13.356;2023-03-25T08:39:12;16.00;61.90
37052;DHT22;22964;52.272;13.356;2023-03-25T08:41:42;16.00;62.10
37052;DHT22;22964;52.272;13.356;2023-03-25T08:44:08;16.00;61.80
37052;DHT22;22964;52.272;13.356;2023-03-25T08:46:34;16.00;62.80
37052;DHT22;22964;52.272;13.356;2023-03-25T08:49:01;16.00;61.30
37052;DHT22;22964;52.272;13.356;2023-03-25T08:51:26;16.00;60.00
37052;DHT22;22964;52.272;13.356;2023-03-25T08:53:52;16.00;61.30
37052;DHT22;22964;52.272;13.356;2023-03-25T08:56:18;16.00;61.00
37052;DHT22;22964;52.272;13.356;2023-03-25T08:58:43;16.00;60.70
37052;DHT22;22964;52.272;13.356;2023-03-25T09:01:10;16.00;61.00
37052;DHT22;22964;52.272;13.356;2023-03-25T09:03:36;16.10;61.20
37052;DHT22;22964;52.272;13.356;2023-03-25T09:06:04;16.10;61.40
37052;DHT22;22964;52.272;13.356;2023-03-25T09:08:30;16.20;61.90
37052;DHT22;22964;52.272;13.356;2023-03-25T09:10:57;16.30;61.90
37052;DHT22;22964;52.272;13.356;2023-03-25T09:13:22;16.50;61.30
37052;DHT22;22964;52.272;13.356;2023-03-25T09:15:48;16.60;59.90
37052;DHT22;22964;52.272;13.356;2023-03-25T09:18:14;16.70;59.70
37052;DHT22;22964;52.272;13.356;2023-03-25T09:20:40;16.70;58.50
37052;DHT22;22964;52.272;13.356;2023-03-25T09:23:06;16.70;58.40
37052;DHT22;22964;52.272;13.356;2023-03-25T09:25:34;16.70;58.10
37052;DHT22;22964;52.272;13.356;2023-03-25T09:28:00;16.70;57.70
37052;DHT22;22964;52.272;13.356;2023-03-25T09:30:26;16.60;57.60
37052;DHT22;22964;52.272;13.356;2023-03-25T09:32:51;16.60;57.30
37052;DHT22;22964;52.272;13.356;2023-03-25T09:35:17;16.60;56.90
37052;DHT22;22964;52.272;13.356;2023-03-25T09:37:43;16.50;57.50
37052;DHT22;22964;52.272;13.356;2023-03-25T09:40:12;16.50;57.70
37052;DHT22;22964;52.272;13.356;2023-03-25T09:45:40;16.40;57.20
37052;DHT22;22964;52.272;13.356;2023-03-25T09:50:58;16.40;56.30
37052;DHT22;22964;52.272;13.356;2023-03-25T09:55:54;16.40;56.80
37052;DHT22;22964;52.272;13.356;2023-03-25T10:00:52;16.40;57.10
37052;DHT22;22964;52.272;13.356;2023-03-25T10:06:29;16.30;56.40
37052;DHT22;22964;52.272;13.356;2023-03-25T10:12:04;16.30;56.10
37052;DHT22;22964;52.272;13.356;2023-03-25T10:20:03;16.40;56.40
37052;DHT22;22964;52.272;13.356;2023-03-25T10:25:12;16.60;56.90
37052;DHT22;22964;52.272;13.356;2023-03-25T10:27:41;16.70;55.80
37052;DHT22;22964;52.272;13.356;2023-03-25T10:32:44;16.90;57.10
37052;DHT22;22964;52.272;13.356;2023-03-25T10:35:44;17.10;55.20
37052;DHT22;22964;52.272;13.356;2023-03-25T10:38:15;17.20;55.10
37052;DHT22;22964;52.272;13.356;2023-03-25T10:40:48;17.30;55.00
37052;DHT22;22964;52.272;13.356;2023-03-25T10:45:44;17.40;54.30
37052;DHT22;22964;52.272;13.356;2023-03-25T10:50:39;17.50;53.50
37052;DHT22;22964;52.272;13.356;2023-03-25T10:53:27;17.50;53.80
37052;DHT22;22964;52.272;13.356;2023-03-25T10:55:57;17.50;53.20
37052;DHT22;22964;52.272;13.356;2023-03-25T10:58:24;17.40;53.60
37052;DHT22;22964;52.272;13.356;2023-03-25T11:00:50;17.30;55.00
37052;DHT22;22964;52.272;13.356;2023-03-25T11:03:20;17.20;54.70
37052;DHT22;22964;52.272;13.356;2023-03-25T11:05:47;17.10;53.80
37052;DHT22;22964;52.272;13.356;2023-03-25T11:08:14;17.00;54.60
37052;DHT22;22964;52.272;13.356;2023-03-25T11:10:46;16.80;54.50
37052;DHT22;22964;52.272;13.356;2023-03-25T11:13:13;16.60;55.00
37052;DHT22;22964;52.272;13.356;2023-03-25T11:15:41;16.50;55.80
37052;DHT22;22964;52.272;13.356;2023-03-25T11:18:39;16.40;56.90
37052;DHT22;22964;52.272;13.356;2023-03-25T11:21:11;16.40;57.60
37052;DHT22;22964;52.272;13.356;2023-03-25T11:23:46;16.50;57.80
37052;DHT22;22964;52.272;13.356;2023-03-25T11:26:21;16.60;57.70
37052;DHT22;22964;52.272;13.356;2023-03-25T11:28:51;16.70;58.30
37052;DHT22;22964;52.272;13.356;2023-03-25T11:31:24;16.80;57.40
37052;DHT22;22964;52.272;13.356;2023-03-25T11:34:18;16.90;57.30
37052;DHT22;22964;52.272;13.356;2023-03-25T11:37:14;17.10;55.60
37052;DHT22;22964;52.272;13.356;2023-03-25T11:39:40;17.10;55.20
37052;DHT22;22964;52.272;13.356;2023-03-25T11:44:42;17.30;55.30
37052;DHT22;22964;52.272;13.356;2023-03-25T11:47:19;17.50;55.10
37052;DHT22;22964;52.272;13.356;2023-03-25T11:49:46;17.60;54.10
37052;DHT22;22964;52.272;13.356;2023-03-25T11:52:20;17.70;53.70
37052;DHT22;22964;52.272;13.356;2023-03-25T11:54:47;17.70;53.80
37052;DHT22;22964;52.272;13.356;2023-03-25T11:57:17;17.70;54.20
37052;DHT22;22964;52.272;13.356;2023-03-25T11:59:46;17.70;54.40
37052;DHT22;22964;52.272;13.356;2023-03-25T12:02:35;17.70;54.70
37052;DHT22;22964;52.272;13.356;2023-03-25T12:07:41;17.70;53.80
37052;DHT22;22964;52.272;13.356;2023-03-25T12:13:04;17.80;54.50
37052;DHT22;22964;52.272;13.356;2023-03-25T12:21:52;17.80;51.90
37052;DHT22;22964;52.272;13.356;2023-03-25T12:27:29;17.70;52.70
37052;DHT22;22964;52.272;13.356;2023-03-25T12:33:08;17.70;52.90
37052;DHT22;22964;52.272;13.356;2023-03-25T12:41:45;17.70;53.00
37052;DHT22;22964;52.272;13.356;2023-03-25T12:53:02;18.10;51.60
37052;DHT22;22964;52.272;13.356;2023-03-25T13:06:15;17.50;56.00
37052;DHT22;22964;52.272;13.356;2023-03-25T13:09:18;17.30;57.20
37052;DHT22;22964;52.272;13.356;2023-03-25T13:11:52;17.20;57.90
37052;DHT22;22964;52.272;13.356;2023-03-25T13:17:43;17.10;57.70
37052;DHT22;22964;52.272;13.356;2023-03-25T13:20:10;17.10;58.30
37052;DHT22;22964;52.272;13.356;2023-03-25T13:22:47;17.20;58.00
37052;DHT22;22964;52.272;13.356;2023-03-25T13:28:04;17.20;57.80
37052;DHT22;22964;52.272;13.356;2023-03-25T13:30:34;17.30;58.00
37052;DHT22;22964;52.272;13.356;2023-03-25T13:33:29;17.40;57.00
37052;DHT22;22964;52.272;13.356;2023-03-25T13:36:36;17.40;56.10
37052;DHT22;22964;52.272;13.356;2023-03-25T13:39:27;17.50;55.00
37052;DHT22;22964;52.272;13.356;2023-03-25T13:42:06;17.50;53.90
37052;DHT22;22964;52.272;13.356;2023-03-25T13:44:38;17.60;54.40
37052;DHT22;22964;52.272;13.356;2023-03-25T13:47:29;17.60;54.20
37052;DHT22;22964;52.272;13.356;2023-03-25T13:52:28;17.50;54.10
37052;DHT22;22964;52.272;13.356;2023-03-25T13:54:57;17.50;54.00
37052;DHT22;22964;52.272;13.356;2023-03-25T14:03:10;17.00;55.10
37052;DHT22;22964;52.272;13.356;2023-03-25T14:13:35;16.20;56.80
37052;DHT22;22964;52.272;13.356;2023-03-25T14:16:06;16.10;57.50
37052;DHT22;22964;52.272;13.356;2023-03-25T14:18:45;15.90;57.70
37052;DHT22;22964;52.272;13.356;2023-03-25T14:23:47;15.70;58.40
37052;DHT22;22964;52.272;13.356;2023-03-25T14:26:16;15.70;58.60
37052;DHT22;22964;52.272;13.356;2023-03-25T14:28:43;15.60;58.80
37052;DHT22;22964;52.272;13.356;2023-03-25T14:39:08;15.50;59.50
37052;DHT22;22964;52.272;13.356;2023-03-25T14:42:00;15.50;60.10
37052;DHT22;22964;52.272;13.356;2023-03-25T14:44:31;15.50;60.90
37052;DHT22;22964;52.272;13.356;2023-03-25T14:52:51;15.90;59.40
37052;DHT22;22964;52.272;13.356;2023-03-25T14:55:28;16.00;59.70
37052;DHT22;22964;52.272;13.356;2023-03-25T15:00:49;16.20;57.80
37052;DHT22;22964;52.272;13.356;2023-03-25T15:03:17;16.30;58.20
37052;DHT22;22964;52.272;13.356;2023-03-25T15:05:52;16.40;58.20
37052;DHT22;22964;52.272;13.356;2023-03-25T15:08:40;16.40;58.00
37052;DHT22;22964;52.272;13.356;2023-03-25T15:11:15;16.50;57.20
37052;DHT22;22964;52.272;13.356;2023-03-25T15:13:47;16.60;57.30
37052;DHT22;22964;52.272;13.356;2023-03-25T15:16:30;16.60;56.80
37052;DHT22;22964;52.272;13.356;2023-03-25T15:18:59;16.60;56.30
37052;DHT22;22964;52.272;13.356;2023-03-25T15:21:25;16.60;56.10
37052;DHT22;22964;52.272;13.356;2023-03-25T15:24:08;16.60;56.00
37052;DHT22;22964;52.272;13.356;2023-03-25T15:26:44;16.60;56.30
37052;DHT22;22964;52.272;13.356;2023-03-25T15:29:18;16.60;55.80
37052;DHT22;22964;52.272;13.356;2023-03-25T15:32:01;16.60;55.60
37052;DHT22;22964;52.272;13.356;2023-03-25T15:35:03;16.60;55.90
37052;DHT22;22964;52.272;13.356;2023-03-25T15:51:49;16.40;55.90
37052;DHT22;22964;52.272;13.356;2023-03-25T15:54:44;16.40;55.60
37052;DHT22;22964;52.272;13.356;2023-03-25T15:57:41;16.40;55.60
37052;DHT22;22964;52.272;13.356;2023-03-25T16:00:21;16.40;55.30
37052;DHT22;22964;52.272;13.356;2023-03-25T16:02:53;16.40;55.70
37052;DHT22;22964;52.272;13.356;2023-03-25T16:05:24;16.40;55.80
37052;DHT22;22964;52.272;13.356;2023-03-25T16:07:50;16.40;55.60
37052;DHT22;22964;52.272;13.356;2023-03-25T16:10:19;16.40;55.80
37052;DHT22;22964;52.272;13.356;2023-03-25T16:12:48;16.30;55.50
37052;DHT22;22964;52.272;13.356;2023-03-25T16:15:16;16.30;55.50
37052;DHT22;22964;52.272;13.356;2023-03-25T16:17:44;16.30;55.50
37052;DHT22;22964;52.272;13.356;2023-03-25T16:20:15;16.30;55.60
37052;DHT22;22964;52.272;13.356;2023-03-25T16:22:47;16.30;55.50
37052;DHT22;22964;52.272;13.356;2023-03-25T16:25:37;16.30;55.40
37052;DHT22;22964;52.272;13.356;2023-03-25T16:28:17;16.30;55.30
37052;DHT22;22964;52.272;13.356;2023-03-25T16:30:51;16.20;55.30
37052;DHT22;22964;52.272;13.356;2023-03-25T16:33:25;16.20;55.70
37052;DHT22;22964;52.272;13.356;2023-03-25T16:38:22;16.10;56.50
37052;DHT22;22964;52.272;13.356;2023-03-25T16:40:50;16.00;56.90
37052;DHT22;22964;52.272;13.356;2023-03-25T16:43:20;16.00;57.30
37052;DHT22;22964;52.272;13.356;2023-03-25T16:45:48;16.00;57.70
37052;DHT22;22964;52.272;13.356;2023-03-25T16:49:00;16.00;57.90
37052;DHT22;22964;52.272;13.356;2023-03-25T16:51:11;15.90;58.10
37052;DHT22;22964;52.272;13.356;2023-03-25T16:53:38;15.90;58.40
37052;DHT22;22964;52.272;13.356;2023-03-25T16:58:35;15.80;58.70
37052;DHT22;22964;52.272;13.356;2023-03-25T17:01:06;15.70;58.70
37052;DHT22;22964;52.272;13.356;2023-03-25T17:03:44;15.70;58.70
37052;DHT22;22964;52.272;13.356;2023-03-25T17:08:36;15.60;58.80
37052;DHT22;22964;52.272;13.356;2023-03-25T17:11:01;15.50;59.00
37052;DHT22;22964;52.272;13.356;2023-03-25T17:13:31;15.50;58.80
37052;DHT22;22964;52.272;13.356;2023-03-25T17:15:59;15.40;58.90
37052;DHT22;22964;52.272;13.356;2023-03-25T17:18:30;15.40;59.00
37052;DHT22;22964;52.272;13.356;2023-03-25T17:20:58;15.40;59.00
37052;DHT22;22964;52.272;13.356;2023-03-25T17:26:06;15.30;58.90
37052;DHT22;22964;52.272;13.356;2023-03-25T17:28:43;15.30;58.90
37052;DHT22;22964;52.272;13.356;2023-03-25T17:34:03;15.30;59.10
37052;DHT22;22964;52.272;13.356;2023-03-25T17:36:31;15.30;59.10
37052;DHT22;22964;52.272;13.356;2023-03-25T17:38:59;15.20;59.10
37052;DHT22;22964;52.272;13.356;2023-03-25T17:41:36;15.20;59.20
37052;DHT22;22964;52.272;13.356;2023-03-25T17:44:03;15.10;59.20
37052;DHT22;22964;52.272;13.356;2023-03-25T17:46:29;15.10;59.20
37052;DHT22;22964;52.272;13.356;2023-03-25T17:48:56;15.10;59.30
37052;DHT22;22964;52.272;13.356;2023-03-25T17:51:24;15.10;59.30
37052;DHT22;22964;52.272;13.356;2023-03-25T17:53:50;15.00;59.30
37052;DHT22;22964;52.272;13.356;2023-03-25T17:56:19;15.00;59.30
37052;DHT22;22964;52.272;13.356;2023-03-25T17:58:46;15.00;59.30
37052;DHT22;22964;52.272;13.356;2023-03-25T18:01:12;15.00;59.10
37052;DHT22;22964;52.272;13.356;2023-03-25T18:03:38;15.00;59.10
37052;DHT22;22964;52.272;13.356;2023-03-25T18:06:04;15.00;59.00
37052;DHT22;22964;52.272;13.356;2023-03-25T18:08:31;15.00;59.00
37052;DHT22;22964;52.272;13.356;2023-03-25T18:10:56;14.90;59.00
37052;DHT22;22964;52.272;13.356;2023-03-25T18:13:24;14.90;59.00
37052;DHT22;22964;52.272;13.356;2023-03-25T18:15:51;14.90;59.10
37052;DHT22;22964;52.272;13.356;2023-03-25T18:18:23;14.90;59.10
37052;DHT22;22964;52.272;13.356;2023-03-25T18:20:49;14.90;59.40
37052;DHT22;22964;52.272;13.356;2023-03-25T18:23:16;14.80;59.40
37052;DHT22;22964;52.272;13.356;2023-03-25T18:25:42;14.80;59.50
37052;DHT22;22964;52.272;13.356;2023-03-25T18:28:13;14.80;60.50
37052;DHT22;22964;52.272;13.356;2023-03-25T18:30:50;14.70;59.70
37052;DHT22;22964;52.272;13.356;2023-03-25T18:33:16;14.70;60.00
37052;DHT22;22964;52.272;13.356;2023-03-25T18:35:43;14.70;60.20
37052;DHT22;22964;52.272;13.356;2023-03-25T18:38:17;14.60;60.30
37052;DHT22;22964;52.272;13.356;2023-03-25T18:40:44;14.60;60.80
37052;DHT22;22964;52.272;13.356;2023-03-25T18:43:09;14.50;60.60
37052;DHT22;22964;52.272;13.356;2023-03-25T18:45:35;14.50;60.80
37052;DHT22;22964;52.272;13.356;2023-03-25T18:48:02;14.50;60.70